Temperatuur

Neerslag

Windstoten

Onweer

Onweerkansen (GFS)

Untitled Document





Vliegweer

[Source: ADDS]
METAR
EBBR 211420Z 05005KT 030V090 9999 FEW048TCU 23/12 Q1013 NOSIG =
TAF
EBBR 211100Z 2112/2218 06006KT 9999 FEW040 PROB30 TEMPO 2115/2123 VRB15G25KT 3000 SHRA TSRAGS TEMPO 2203/2206 4000 BR PROB40 TEMPO 2215/2218 VRB18G30KT 1500 SHRA TSRAGR =

StormCell is een non profit organisatie zonder oogmerk tot sensatie